sensor_id;sensor_type;location;lat;lon;timestamp;pressure;altitude;pressure_sealevel;temperature;humidity
13478;BME280;12598;62.382;17.344;2024-03-29T00:00:11;99249.63;;;20.64;24.77
13478;BME280;12598;62.382;17.344;2024-03-29T00:01:13;99254.19;;;20.64;24.01
13478;BME280;12598;62.382;17.344;2024-03-29T00:02:14;99253.94;;;20.59;24.21
13478;BME280;12598;62.382;17.344;2024-03-29T00:03:15;99263.06;;;20.64;24.40
13478;BME280;12598;62.382;17.344;2024-03-29T00:04:15;99265.75;;;20.64;24.37
13478;BME280;12598;62.382;17.344;2024-03-29T00:05:16;99260.38;;;20.64;24.14
13478;BME280;12598;62.382;17.344;2024-03-29T00:06:17;99260.38;;;20.64;24.19
13478;BME280;12598;62.382;17.344;2024-03-29T00:07:18;99259.56;;;20.64;24.29
13478;BME280;12598;62.382;17.344;2024-03-29T00:08:19;99262.25;;;20.64;24.77
13478;BME280;12598;62.382;17.344;2024-03-29T00:09:20;99243.19;;;20.52;24.83
13478;BME280;12598;62.382;17.344;2024-03-29T00:10:21;99264.09;;;20.63;24.81
13478;BME280;12598;62.382;17.344;2024-03-29T00:11:21;99267.81;;;20.62;24.70
13478;BME280;12598;62.382;17.344;2024-03-29T00:12:22;99267.19;;;20.60;24.46
13478;BME280;12598;62.382;17.344;2024-03-29T00:13:23;99266.78;;;20.63;24.04
13478;BME280;12598;62.382;17.344;2024-03-29T00:14:24;99268.66;;;20.63;24.76
13478;BME280;12598;62.382;17.344;2024-03-29T00:15:26;99269.47;;;20.63;24.83
13478;BME280;12598;62.382;17.344;2024-03-29T00:16:27;99262.44;;;20.62;24.52
13478;BME280;12598;62.382;17.344;2024-03-29T00:17:28;99267.19;;;20.60;24.07
13478;BME280;12598;62.382;17.344;2024-03-29T00:18:29;99259.13;;;20.60;24.44
13478;BME280;12598;62.382;17.344;2024-03-29T00:19:30;99265.13;;;20.62;24.36
13478;BME280;12598;62.382;17.344;2024-03-29T00:20:31;99264.28;;;20.62;24.38
13478;BME280;12598;62.382;17.344;2024-03-29T00:21:32;99265.97;;;20.63;24.03
13478;BME280;12598;62.382;17.344;2024-03-29T00:22:33;99267.81;;;20.62;24.29
13478;BME280;12598;62.382;17.344;2024-03-29T00:23:34;99267.81;;;20.62;24.86
13478;BME280;12598;62.382;17.344;2024-03-29T00:24:34;99267.81;;;20.62;24.49
13478;BME280;12598;62.382;17.344;2024-03-29T00:25:35;99268.66;;;20.63;24.17
13478;BME280;12598;62.382;17.344;2024-03-29T00:26:36;99262.44;;;20.62;24.05
13478;BME280;12598;62.382;17.344;2024-03-29T00:27:37;99264.09;;;20.63;24.31
13478;BME280;12598;62.382;17.344;2024-03-29T00:28:38;99263.03;;;20.58;24.66
13478;BME280;12598;62.382;17.344;2024-03-29T00:29:39;99268.66;;;20.63;24.66
13478;BME280;12598;62.382;17.344;2024-03-29T00:30:40;99261.19;;;20.58;24.41
13478;BME280;12598;62.382;17.344;2024-03-29T00:31:41;99266.16;;;20.61;24.56
13478;BME280;12598;62.382;17.344;2024-03-29T00:32:42;99263.47;;;20.61;24.14
13478;BME280;12598;62.382;17.344;2024-03-29T00:33:42;99257.88;;;20.56;24.46
13478;BME280;12598;62.382;17.344;2024-03-29T00:34:43;99274.19;;;20.61;24.31
13478;BME280;12598;62.382;17.344;2024-03-29T00:35:45;99259.94;;;20.61;24.04
13478;BME280;12598;62.382;17.344;2024-03-29T00:36:45;99266.16;;;20.61;24.27
13478;BME280;12598;62.382;17.344;2024-03-29T00:37:46;99255.19;;;20.56;24.41
13478;BME280;12598;62.382;17.344;2024-03-29T00:38:47;99260.16;;;20.59;24.09
13478;BME280;12598;62.382;17.344;2024-03-29T00:39:48;99258.06;;;20.55;24.68
13478;BME280;12598;62.382;17.344;2024-03-29T00:40:49;99262.84;;;20.59;24.43
13478;BME280;12598;62.382;17.344;2024-03-29T00:41:50;99274.19;;;20.61;24.31
13478;BME280;12598;62.382;17.344;2024-03-29T00:42:51;99264.50;;;20.60;24.02
13478;BME280;12598;62.382;17.344;2024-03-29T00:43:51;99269.88;;;20.60;24.36
13478;BME280;12598;62.382;17.344;2024-03-29T00:44:52;99261.97;;;20.52;24.23
13478;BME280;12598;62.382;17.344;2024-03-29T00:45:53;99266.34;;;20.60;24.20
13478;BME280;12598;62.382;17.344;2024-03-29T00:46:54;99264.50;;;20.60;24.28
13478;BME280;12598;62.382;17.344;2024-03-29T00:47:55;99267.19;;;20.60;23.97
13478;BME280;12598;62.382;17.344;2024-03-29T00:48:56;99253.94;;;20.52;24.33
13478;BME280;12598;62.382;17.344;2024-03-29T00:49:57;99267.38;;;20.59;24.13
13478;BME280;12598;62.382;17.344;2024-03-29T00:50:57;99271.91;;;20.58;24.70
13478;BME280;12598;62.382;17.344;2024-03-29T00:51:59;99274.38;;;20.60;23.96
13478;BME280;12598;62.382;17.344;2024-03-29T00:53:00;99271.91;;;20.58;24.43
13478;BME280;12598;62.382;17.344;2024-03-29T00:54:01;99277.06;;;20.60;24.47
13478;BME280;12598;62.382;17.344;2024-03-29T00:55:02;99265.72;;;20.58;24.71
13478;BME280;12598;62.382;17.344;2024-03-29T00:56:04;99270.03;;;20.59;23.93
13478;BME280;12598;62.382;17.344;2024-03-29T00:57:04;99240.41;;;20.39;24.71
13478;BME280;12598;62.382;17.344;2024-03-29T00:58:07;99261.59;;;20.55;24.45
13478;BME280;12598;62.382;17.344;2024-03-29T00:59:08;99261.59;;;20.55;24.35
13478;BME280;12598;62.382;17.344;2024-03-29T01:00:09;99271.28;;;20.56;24.32
13478;BME280;12598;62.382;17.344;2024-03-29T01:01:13;99259.53;;;20.57;24.67
13478;BME280;12598;62.382;17.344;2024-03-29T01:02:14;99248.34;;;20.47;24.41
13478;BME280;12598;62.382;17.344;2024-03-29T01:03:15;99245.47;;;20.55;23.96
13478;BME280;12598;62.382;17.344;2024-03-29T01:04:16;99255.19;;;20.56;24.35
13478;BME280;12598;62.382;17.344;2024-03-29T01:05:17;99256.22;;;20.55;24.63
13478;BME280;12598;62.382;17.344;2024-03-29T01:06:17;99257.03;;;20.56;24.08
13478;BME280;12598;62.382;17.344;2024-03-29T01:07:18;99244.00;;;20.53;24.47
13478;BME280;12598;62.382;17.344;2024-03-29T01:08:19;99232.22;;;20.47;24.25
13478;BME280;12598;62.382;17.344;2024-03-29T01:09:20;99250.84;;;20.55;24.27
13478;BME280;12598;62.382;17.344;2024-03-29T01:10:21;99244.84;;;20.53;24.24
13478;BME280;12598;62.382;17.344;2024-03-29T01:11:23;99243.59;;;20.49;24.40
13478;BME280;12598;62.382;17.344;2024-03-29T01:12:24;99242.97;;;20.54;24.39
13478;BME280;12598;62.382;17.344;2024-03-29T01:13:25;99252.06;;;20.53;23.89
13478;BME280;12598;62.382;17.344;2024-03-29T01:14:26;99249.19;;;20.54;24.25
13478;BME280;12598;62.382;17.344;2024-03-29T01:15:27;99248.56;;;20.52;23.95
13478;BME280;12598;62.382;17.344;2024-03-29T01:16:27;99241.53;;;20.51;24.35
13478;BME280;12598;62.382;17.344;2024-03-29T01:17:29;99238.81;;;20.45;24.46
13478;BME280;12598;62.382;17.344;2024-03-29T01:18:29;99229.03;;;20.37;24.60
13478;BME280;12598;62.382;17.344;2024-03-29T01:19:30;99247.72;;;20.52;24.02
13478;BME280;12598;62.382;17.344;2024-03-29T01:20:31;99249.59;;;20.51;24.61
13478;BME280;12598;62.382;17.344;2024-03-29T01:21:32;99238.84;;;20.51;24.29
13478;BME280;12598;62.382;17.344;2024-03-29T01:22:34;99250.63;;;20.50;23.97
13478;BME280;12598;62.382;17.344;2024-03-29T01:23:35;99235.50;;;20.43;24.18
13478;BME280;12598;62.382;17.344;2024-03-29T01:24:38;99245.25;;;20.50;24.23
13478;BME280;12598;62.382;17.344;2024-03-29T01:25:39;99247.94;;;20.50;24.16
13478;BME280;12598;62.382;17.344;2024-03-29T01:26:40;99235.72;;;20.41;24.39
13478;BME280;12598;62.382;17.344;2024-03-29T01:27:41;99247.31;;;20.48;24.21
13478;BME280;12598;62.382;17.344;2024-03-29T01:28:41;99240.91;;;20.49;24.44
13478;BME280;12598;62.382;17.344;2024-03-29T01:29:42;99246.28;;;20.49;24.11
13478;BME280;12598;62.382;17.344;2024-03-29T01:30:43;99244.63;;;20.48;24.12
13478;BME280;12598;62.382;17.344;2024-03-29T01:31:44;99252.66;;;20.48;24.54
13478;BME280;12598;62.382;17.344;2024-03-29T01:32:45;99237.59;;;20.47;24.67
13478;BME280;12598;62.382;17.344;2024-03-29T01:33:46;99250.16;;;20.47;24.41
13478;BME280;12598;62.382;17.344;2024-03-29T01:34:47;99254.72;;;20.46;24.02
13478;BME280;12598;62.382;17.344;2024-03-29T01:35:48;99244.00;;;20.46;24.63
13478;BME280;12598;62.382;17.344;2024-03-29T01:36:49;99256.56;;;20.46;23.96
13478;BME280;12598;62.382;17.344;2024-03-29T01:37:50;99244.75;;;20.40;24.19
13478;BME280;12598;62.382;17.344;2024-03-29T01:38:50;99254.09;;;20.44;24.63
13478;BME280;12598;62.382;17.344;2024-03-29T01:39:55;99246.81;;;20.38;24.52
13478;BME280;12598;62.382;17.344;2024-03-29T01:40:55;99247.03;;;20.37;24.22
13478;BME280;12598;62.382;17.344;2024-03-29T01:41:56;99242.47;;;20.37;24.37
13478;BME280;12598;62.382;17.344;2024-03-29T01:42:57;99238.41;;;20.41;24.33
13478;BME280;12598;62.382;17.344;2024-03-29T01:43:58;99242.47;;;20.37;24.22
13478;BME280;12598;62.382;17.344;2024-03-29T01:44:58;99235.44;;;20.30;24.29
13478;BME280;12598;62.382;17.344;2024-03-29T01:46:00;99256.16;;;20.42;24.76
13478;BME280;12598;62.382;17.344;2024-03-29T01:47:01;99251.16;;;20.39;24.71
13478;BME280;12598;62.382;17.344;2024-03-29T01:48:02;99250.13;;;20.40;24.44
13478;BME280;12598;62.382;17.344;2024-03-29T01:49:05;99231.50;;;20.32;24.39
13478;BME280;12598;62.382;17.344;2024-03-29T01:50:06;99244.97;;;20.39;24.14
13478;BME280;12598;62.382;17.344;2024-03-29T01:51:09;99251.16;;;20.39;24.69
13478;BME280;12598;62.382;17.344;2024-03-29T01:52:14;99246.81;;;20.38;24.17
13478;BME280;12598;62.382;17.344;2024-03-29T01:53:18;99251.16;;;20.39;24.71
13478;BME280;12598;62.382;17.344;2024-03-29T01:54:19;99241.63;;;20.30;24.56
13478;BME280;12598;62.382;17.344;2024-03-29T01:55:20;99244.97;;;20.39;24.03
13478;BME280;12598;62.382;17.344;2024-03-29T01:56:22;99257.56;;;20.38;24.04
13478;BME280;12598;62.382;17.344;2024-03-29T01:57:23;99244.13;;;20.38;24.35
13478;BME280;12598;62.382;17.344;2024-03-29T01:58:24;99247.03;;;20.37;23.94
13478;BME280;12598;62.382;17.344;2024-03-29T01:59:26;99259.41;;;20.38;24.68
13478;BME280;12598;62.382;17.344;2024-03-29T02:00:29;99240.41;;;20.33;24.49
13478;BME280;12598;62.382;17.344;2024-03-29T02:01:34;99249.50;;;20.38;24.21
13478;BME280;12598;62.382;17.344;2024-03-29T02:02:36;99252.56;;;20.35;23.99
13478;BME280;12598;62.382;17.344;2024-03-29T02:03:37;99253.22;;;20.37;24.79
13478;BME280;12598;62.382;17.344;2024-03-29T02:04:38;99233.97;;;20.27;24.37
13478;BME280;12598;62.382;17.344;2024-03-29T02:05:40;99252.78;;;20.34;24.40
13478;BME280;12598;62.382;17.344;2024-03-29T02:06:41;99251.78;;;20.35;24.68
13478;BME280;12598;62.382;17.344;2024-03-29T02:07:42;99251.78;;;20.35;24.74
13478;BME280;12598;62.382;17.344;2024-03-29T02:08:49;99251.78;;;20.35;24.15
13478;BME280;12598;62.382;17.344;2024-03-29T02:09:52;99255.91;;;20.37;24.52
13478;BME280;12598;62.382;17.344;2024-03-29T02:10:53;99247.22;;;20.35;24.11
13478;BME280;12598;62.382;17.344;2024-03-29T02:11:54;99249.91;;;20.35;24.03
13478;BME280;12598;62.382;17.344;2024-03-29T02:12:55;99254.25;;;20.36;24.29
13478;BME280;12598;62.382;17.344;2024-03-29T02:13:57;99253.59;;;20.34;24.32
13478;BME280;12598;62.382;17.344;2024-03-29T02:14:57;99250.91;;;20.34;24.12
13478;BME280;12598;62.382;17.344;2024-03-29T02:15:59;99250.91;;;20.34;24.73
13478;BME280;12598;62.382;17.344;2024-03-29T02:17:00;99246.59;;;20.33;23.94
13478;BME280;12598;62.382;17.344;2024-03-29T02:18:00;99243.72;;;20.35;24.01
13478;BME280;12598;62.382;17.344;2024-03-29T02:19:01;99245.56;;;20.34;23.99
13478;BME280;12598;62.382;17.344;2024-03-29T02:20:02;99237.50;;;20.34;24.27
13478;BME280;12598;62.382;17.344;2024-03-29T02:21:03;99232.13;;;20.34;24.84
13478;BME280;12598;62.382;17.344;2024-03-29T02:22:05;99232.34;;;20.33;24.75
13478;BME280;12598;62.382;17.344;2024-03-29T02:23:14;99225.09;;;20.27;24.15
13478;BME280;12598;62.382;17.344;2024-03-29T02:24:16;99232.97;;;20.35;24.68
13478;BME280;12598;62.382;17.344;2024-03-29T02:25:18;99235.66;;;20.35;24.57
13478;BME280;12598;62.382;17.344;2024-03-29T02:26:19;99247.22;;;20.35;24.26
13478;BME280;12598;62.382;17.344;2024-03-29T02:27:20;99235.84;;;20.33;24.31
13478;BME280;12598;62.382;17.344;2024-03-29T02:28:25;99234.19;;;20.32;23.99
13478;BME280;12598;62.382;17.344;2024-03-29T02:29:26;99232.34;;;20.33;24.78
13478;BME280;12598;62.382;17.344;2024-03-29T02:30:27;99237.72;;;20.33;24.66
13478;BME280;12598;62.382;17.344;2024-03-29T02:31:29;99233.31;;;20.25;24.38
13478;BME280;12598;62.382;17.344;2024-03-29T02:32:29;99246.16;;;20.30;24.51
13478;BME280;12598;62.382;17.344;2024-03-29T02:33:30;99236.25;;;20.30;24.15
13478;BME280;12598;62.382;17.344;2024-03-29T02:34:31;99245.31;;;20.29;24.53
13478;BME280;12598;62.382;17.344;2024-03-29T02:35:32;99233.78;;;20.29;24.36
13478;BME280;12598;62.382;17.344;2024-03-29T02:36:33;99229.22;;;20.29;24.73
13478;BME280;12598;62.382;17.344;2024-03-29T02:37:36;99237.50;;;20.28;24.82
13478;BME280;12598;62.382;17.344;2024-03-29T02:38:38;99222.19;;;20.22;24.26
13478;BME280;12598;62.382;17.344;2024-03-29T02:39:38;99234.59;;;20.29;24.89
13478;BME280;12598;62.382;17.344;2024-03-29T02:40:39;99242.00;;;20.27;24.24
13478;BME280;12598;62.382;17.344;2024-03-29T02:41:40;99243.88;;;20.27;24.92
13478;BME280;12598;62.382;17.344;2024-03-29T02:42:41;99235.00;;;20.26;24.52
13478;BME280;12598;62.382;17.344;2024-03-29T02:43:42;99235.00;;;20.26;24.55
13478;BME280;12598;62.382;17.344;2024-03-29T02:44:44;99239.53;;;20.26;24.39
13478;BME280;12598;62.382;17.344;2024-03-29T02:45:46;99218.81;;;20.13;24.89
13478;BME280;12598;62.382;17.344;2024-03-29T02:46:47;99240.13;;;20.21;24.23
13478;BME280;12598;62.382;17.344;2024-03-29T02:47:48;99247.78;;;20.24;24.67
13478;BME280;12598;62.382;17.344;2024-03-29T02:48:48;99238.69;;;20.25;24.40
13478;BME280;12598;62.382;17.344;2024-03-29T02:49:49;99254.00;;;20.25;24.49
13478;BME280;12598;62.382;17.344;2024-03-29T02:50:50;99240.56;;;20.25;24.06
13478;BME280;12598;62.382;17.344;2024-03-29T02:51:50;99233.94;;;20.21;24.75
13478;BME280;12598;62.382;17.344;2024-03-29T02:52:53;99237.03;;;20.24;24.34
13478;BME280;12598;62.382;17.344;2024-03-29T02:53:54;99237.88;;;20.25;24.45
13478;BME280;12598;62.382;17.344;2024-03-29T02:54:55;99232.69;;;20.23;24.15
13478;BME280;12598;62.382;17.344;2024-03-29T02:55:56;99237.25;;;20.23;24.42
13478;BME280;12598;62.382;17.344;2024-03-29T02:56:56;99236.22;;;20.24;24.66
13478;BME280;12598;62.382;17.344;2024-03-29T02:57:57;99234.56;;;20.23;24.73
13478;BME280;12598;62.382;17.344;2024-03-29T02:58:58;99243.44;;;20.23;24.73
13478;BME280;12598;62.382;17.344;2024-03-29T02:59:59;99233.72;;;20.22;24.16
13478;BME280;12598;62.382;17.344;2024-03-29T03:01:07;99232.06;;;20.21;24.90
13478;BME280;12598;62.382;17.344;2024-03-29T03:02:08;99227.34;;;20.23;24.38
13478;BME280;12598;62.382;17.344;2024-03-29T03:03:09;99235.59;;;20.22;24.93
13478;BME280;12598;62.382;17.344;2024-03-29T03:04:10;99221.34;;;20.21;24.43
13478;BME280;12598;62.382;17.344;2024-03-29T03:05:10;99220.72;;;20.19;24.47
13478;BME280;12598;62.382;17.344;2024-03-29T03:06:11;99225.06;;;20.20;24.14
13478;BME280;12598;62.382;17.344;2024-03-29T03:07:12;99213.44;;;20.13;24.49
13478;BME280;12598;62.382;17.344;2024-03-29T03:08:32;99215.34;;;20.19;24.17
13478;BME280;12598;62.382;17.344;2024-03-29T03:09:51;99232.94;;;20.28;24.25
13478;BME280;12598;62.382;17.344;2024-03-29T03:11:10;99223.84;;;20.29;24.54
13478;BME280;12598;62.382;17.344;2024-03-29T03:12:11;99227.97;;;20.25;24.31
13478;BME280;12598;62.382;17.344;2024-03-29T03:13:12;99231.03;;;20.22;24.49
13478;BME280;12598;62.382;17.344;2024-03-29T03:14:13;99237.44;;;20.21;24.57
13478;BME280;12598;62.382;17.344;2024-03-29T03:15:14;99221.72;;;20.18;24.54
13478;BME280;12598;62.382;17.344;2024-03-29T03:16:15;99234.13;;;20.19;24.87
13478;BME280;12598;62.382;17.344;2024-03-29T03:17:16;99227.91;;;20.19;24.34
13478;BME280;12598;62.382;17.344;2024-03-29T03:18:16;99232.47;;;20.18;24.13
13478;BME280;12598;62.382;17.344;2024-03-29T03:19:17;99223.34;;;20.13;24.52
13478;BME280;12598;62.382;17.344;2024-03-29T03:20:18;99235.34;;;20.17;24.67
13478;BME280;12598;62.382;17.344;2024-03-29T03:21:20;99229.97;;;20.17;24.78
13478;BME280;12598;62.382;17.344;2024-03-29T03:22:21;99237.84;;;20.18;25.04
13478;BME280;12598;62.382;17.344;2024-03-29T03:23:22;99237.00;;;20.18;24.31
13478;BME280;12598;62.382;17.344;2024-03-29T03:24:23;99237.00;;;20.18;24.27
13478;BME280;12598;62.382;17.344;2024-03-29T03:25:26;99233.50;;;20.17;24.34
13478;BME280;12598;62.382;17.344;2024-03-29T03:26:27;99217.97;;;20.13;24.66
13478;BME280;12598;62.382;17.344;2024-03-29T03:27:28;99232.66;;;20.17;24.16
13478;BME280;12598;62.382;17.344;2024-03-29T03:28:29;99232.66;;;20.17;24.94
13478;BME280;12598;62.382;17.344;2024-03-29T03:29:30;99237.22;;;20.16;24.24
13478;BME280;12598;62.382;17.344;2024-03-29T03:30:30;99240.91;;;20.15;24.80
13478;BME280;12598;62.382;17.344;2024-03-29T03:31:31;99241.72;;;20.16;24.39
13478;BME280;12598;62.382;17.344;2024-03-29T03:32:32;99239.03;;;20.16;24.99
13478;BME280;12598;62.382;17.344;2024-03-29T03:33:33;99238.22;;;20.15;24.24
13478;BME280;12598;62.382;17.344;2024-03-29T03:34:34;99238.22;;;20.15;24.95
13478;BME280;12598;62.382;17.344;2024-03-29T03:35:35;99235.56;;;20.15;24.58
13478;BME280;12598;62.382;17.344;2024-03-29T03:36:36;99236.56;;;20.14;24.87
13478;BME280;12598;62.382;17.344;2024-03-29T03:37:36;99241.09;;;20.14;24.99
13478;BME280;12598;62.382;17.344;2024-03-29T03:38:37;99222.94;;;20.09;24.45
13478;BME280;12598;62.382;17.344;2024-03-29T03:39:40;99238.22;;;20.15;24.67
13478;BME280;12598;62.382;17.344;2024-03-29T03:40:41;99240.06;;;20.15;24.40
13478;BME280;12598;62.382;17.344;2024-03-29T03:41:42;99240.28;;;20.13;24.71
13478;BME280;12598;62.382;17.344;2024-03-29T03:42:43;99242.75;;;20.15;24.78
13478;BME280;12598;62.382;17.344;2024-03-29T03:43:43;99241.09;;;20.14;24.72
13478;BME280;12598;62.382;17.344;2024-03-29T03:44:44;99230.13;;;20.09;24.61
13478;BME280;12598;62.382;17.344;2024-03-29T03:45:45;99233.25;;;20.12;24.43
13478;BME280;12598;62.382;17.344;2024-03-29T03:46:48;99232.00;;;20.08;24.47
13478;BME280;12598;62.382;17.344;2024-03-29T03:47:49;99228.28;;;20.09;24.36
13478;BME280;12598;62.382;17.344;2024-03-29T03:48:49;99239.25;;;20.14;24.22
13478;BME280;12598;62.382;17.344;2024-03-29T03:49:50;99224.97;;;20.07;24.81
13478;BME280;12598;62.382;17.344;2024-03-29T03:50:51;99243.59;;;20.15;24.79
13478;BME280;12598;62.382;17.344;2024-03-29T03:51:52;99232.41;;;20.12;24.44
13478;BME280;12598;62.382;17.344;2024-03-29T03:52:53;99239.25;;;20.14;24.93
13478;BME280;12598;62.382;17.344;2024-03-29T03:53:54;99241.94;;;20.14;24.40
13478;BME280;12598;62.382;17.344;2024-03-29T03:54:55;99235.94;;;20.12;24.45
13478;BME280;12598;62.382;17.344;2024-03-29T03:55:56;99241.09;;;20.14;24.15
13478;BME280;12598;62.382;17.344;2024-03-29T03:56:56;99238.22;;;20.15;24.54
13478;BME280;12598;62.382;17.344;2024-03-29T03:57:57;99243.78;;;20.14;24.60
13478;BME280;12598;62.382;17.344;2024-03-29T03:58:58;99241.94;;;20.14;24.33
13478;BME280;12598;62.382;17.344;2024-03-29T03:59:59;99227.91;;;20.12;24.49
13478;BME280;12598;62.382;17.344;2024-03-29T04:01:06;99242.13;;;20.13;24.90
13478;BME280;12598;62.382;17.344;2024-03-29T04:02:07;99237.22;;;20.16;24.81
13478;BME280;12598;62.382;17.344;2024-03-29T04:03:07;99237.38;;;20.15;24.73
13478;BME280;12598;62.382;17.344;2024-03-29T04:04:08;99234.91;;;20.13;24.66
13478;BME280;12598;62.382;17.344;2024-03-29T04:05:09;99229.34;;;20.15;24.77
13478;BME280;12598;62.382;17.344;2024-03-29T04:06:10;99224.81;;;20.15;24.38
13478;BME280;12598;62.382;17.344;2024-03-29T04:07:11;99228.53;;;20.14;24.86
13478;BME280;12598;62.382;17.344;2024-03-29T04:08:12;99234.91;;;20.13;24.56
13478;BME280;12598;62.382;17.344;2024-03-29T04:09:14;99235.72;;;20.14;24.84
13478;BME280;12598;62.382;17.344;2024-03-29T04:10:16;99230.38;;;20.14;24.66
13478;BME280;12598;62.382;17.344;2024-03-29T04:11:17;99223.16;;;20.14;24.28
13478;BME280;12598;62.382;17.344;2024-03-29T04:12:18;99230.38;;;20.14;24.71
13478;BME280;12598;62.382;17.344;2024-03-29T04:13:19;99228.72;;;20.13;24.67
13478;BME280;12598;62.382;17.344;2024-03-29T04:14:19;99240.28;;;20.13;24.92
13478;BME280;12598;62.382;17.344;2024-03-29T04:15:20;99227.91;;;20.12;24.67
13478;BME280;12598;62.382;17.344;2024-03-29T04:16:21;99217.13;;;20.06;24.41
13478;BME280;12598;62.382;17.344;2024-03-29T04:17:23;99223.31;;;20.06;24.43
13478;BME280;12598;62.382;17.344;2024-03-29T04:18:24;99232.41;;;20.12;24.81
13478;BME280;12598;62.382;17.344;2024-03-29T04:19:25;99232.41;;;20.12;24.04
13478;BME280;12598;62.382;17.344;2024-03-29T04:20:26;99238.63;;;20.12;24.18
13478;BME280;12598;62.382;17.344;2024-03-29T04:21:27;99228.91;;;20.11;24.74
13478;BME280;12598;62.382;17.344;2024-03-29T04:22:28;99226.81;;;20.07;24.39
13478;BME280;12598;62.382;17.344;2024-03-29T04:23:30;99234.28;;;20.11;24.19
13478;BME280;12598;62.382;17.344;2024-03-29T04:24:31;99228.91;;;20.11;24.13
13478;BME280;12598;62.382;17.344;2024-03-29T04:25:32;99213.41;;;20.07;24.64
13478;BME280;12598;62.382;17.344;2024-03-29T04:26:33;99234.06;;;20.13;24.92
13478;BME280;12598;62.382;17.344;2024-03-29T04:27:34;99227.91;;;20.12;24.15
13478;BME280;12598;62.382;17.344;2024-03-29T04:28:35;99237.59;;;20.13;24.72
13478;BME280;12598;62.382;17.344;2024-03-29T04:29:36;99227.91;;;20.12;24.42
13478;BME280;12598;62.382;17.344;2024-03-29T04:30:36;99229.56;;;20.13;24.37
13478;BME280;12598;62.382;17.344;2024-03-29T04:31:37;99225.00;;;20.14;24.72
13478;BME280;12598;62.382;17.344;2024-03-29T04:32:38;99231.22;;;20.14;24.37
13478;BME280;12598;62.382;17.344;2024-03-29T04:33:39;99228.53;;;20.14;24.38
13478;BME280;12598;62.382;17.344;2024-03-29T04:34:39;99225.84;;;20.14;24.11
13478;BME280;12598;62.382;17.344;2024-03-29T04:35:40;99225.84;;;20.14;24.86
13478;BME280;12598;62.382;17.344;2024-03-29T04:36:41;99222.13;;;20.15;24.74
13478;BME280;12598;62.382;17.344;2024-03-29T04:37:42;99226.66;;;20.15;24.51
13478;BME280;12598;62.382;17.344;2024-03-29T04:38:43;99232.03;;;20.15;24.36
13478;BME280;12598;62.382;17.344;2024-03-29T04:39:46;99225.84;;;20.14;24.75
13478;BME280;12598;62.382;17.344;2024-03-29T04:40:50;99219.63;;;20.14;24.54
13478;BME280;12598;62.382;17.344;2024-03-29T04:41:52;99214.25;;;20.14;24.39
13478;BME280;12598;62.382;17.344;2024-03-29T04:42:52;99216.78;;;20.15;24.52
13478;BME280;12598;62.382;17.344;2024-03-29T04:43:53;99209.91;;;20.06;24.64
13478;BME280;12598;62.382;17.344;2024-03-29T04:44:54;99227.50;;;20.15;24.43
13478;BME280;12598;62.382;17.344;2024-03-29T04:47:11;99221.53;;;20.20;24.67
13478;BME280;12598;62.382;17.344;2024-03-29T04:48:12;99218.41;;;20.16;24.65
13478;BME280;12598;62.382;17.344;2024-03-29T04:49:13;99225.44;;;20.17;24.06
13478;BME280;12598;62.382;17.344;2024-03-29T04:50:17;99212.03;;;20.17;24.26
13478;BME280;12598;62.382;17.344;2024-03-29T04:51:17;99220.88;;;20.18;24.57
13478;BME280;12598;62.382;17.344;2024-03-29T04:52:18;99204.16;;;20.09;24.43
13478;BME280;12598;62.382;17.344;2024-03-29T04:53:19;99219.44;;;20.15;24.86
13478;BME280;12598;62.382;17.344;2024-03-29T04:54:20;99215.13;;;20.14;24.72
13478;BME280;12598;62.382;17.344;2024-03-29T04:55:21;99220.47;;;20.14;24.92
13478;BME280;12598;62.382;17.344;2024-03-29T04:56:22;99222.13;;;20.15;24.60
13478;BME280;12598;62.382;17.344;2024-03-29T04:57:22;99221.28;;;20.15;24.55
13478;BME280;12598;62.382;17.344;2024-03-29T04:58:26;99213.44;;;20.13;24.72
13478;BME280;12598;62.382;17.344;2024-03-29T04:59:28;99215.13;;;20.14;24.33
13478;BME280;12598;62.382;17.344;2024-03-29T05:00:29;99213.44;;;20.13;24.53
13478;BME280;12598;62.382;17.344;2024-03-29T05:01:30;99222.13;;;20.15;24.66
13478;BME280;12598;62.382;17.344;2024-03-29T05:02:31;99216.78;;;20.15;24.13
13478;BME280;12598;62.382;17.344;2024-03-29T05:03:32;99212.22;;;20.16;24.70
13478;BME280;12598;62.382;17.344;2024-03-29T05:04:32;99218.59;;;20.15;24.34
13478;BME280;12598;62.382;17.344;2024-03-29T05:05:33;99208.72;;;20.15;24.88
13478;BME280;12598;62.382;17.344;2024-03-29T05:06:34;99213.25;;;20.15;24.63
13478;BME280;12598;62.382;17.344;2024-03-29T05:07:35;99214.09;;;20.15;24.71
13478;BME280;12598;62.382;17.344;2024-03-29T05:08:37;99206.22;;;20.14;24.27
13478;BME280;12598;62.382;17.344;2024-03-29T05:09:37;99206.84;;;20.16;24.20
13478;BME280;12598;62.382;17.344;2024-03-29T05:10:41;99212.44;;;20.14;24.61
13478;BME280;12598;62.382;17.344;2024-03-29T05:11:42;99199.63;;;20.16;24.18
13478;BME280;12598;62.382;17.344;2024-03-29T05:12:43;99200.66;;;20.15;24.58
13478;BME280;12598;62.382;17.344;2024-03-29T05:13:44;99196.09;;;20.16;24.23
13478;BME280;12598;62.382;17.344;2024-03-29T05:14:45;99195.88;;;20.11;24.59
13478;BME280;12598;62.382;17.344;2024-03-29T05:15:47;99200.66;;;20.15;24.87
13478;BME280;12598;62.382;17.344;2024-03-29T05:16:48;99196.94;;;20.16;24.16
13478;BME280;12598;62.382;17.344;2024-03-29T05:17:50;99202.31;;;20.16;24.74
13478;BME280;12598;62.382;17.344;2024-03-29T05:18:50;99199.63;;;20.16;24.79
13478;BME280;12598;62.382;17.344;2024-03-29T05:19:51;99197.78;;;20.17;24.58
13478;BME280;12598;62.382;17.344;2024-03-29T05:20:52;99205.81;;;20.17;24.87
13478;BME280;12598;62.382;17.344;2024-03-29T05:21:53;99191.59;;;20.16;24.58